Ayersville, North Carolina
Current Conditions -  °F | °C
As of 7:15 PM on Wednesday 22 Oct 2014 (Local Time) from KSIF Reporting Station
Clear Clear  
Wind Chill: 12°   Ceiling: Unl
Heat Index: 12°   Visibility: 10mi
Dew Point:   Wind: 5mph
Humidity: 62%   Direction: 310°NW
Pressure: 30.05"   Gusts: NA
Location:  36.4479°N, 79.9473°W
Report Text: KSIF 222315Z AUTO 31004KT 10SM CLR 12/05 A3005 RMK AO2 T01230053
Loading
Personal Weather Stations






























Interactive Weather Map
Tropical Storm Tracking
New forecast layout! Learn more

10-Day Weather Forecast

Advertisements
Track Severe Weather on mobile